createdAt,value
2023-02-05T00:02:13.619Z,8.77
2023-02-05T00:04:41.148Z,7.40
2023-02-05T00:07:08.497Z,7.43
2023-02-05T00:09:36.843Z,7.28
2023-02-05T00:12:04.429Z,7.68
2023-02-05T00:14:31.730Z,6.30
2023-02-05T00:16:58.935Z,7.35
2023-02-05T00:19:26.290Z,6.35
2023-02-05T00:21:53.473Z,6.65
2023-02-05T00:24:20.726Z,6.30
2023-02-05T00:26:47.962Z,5.80
2023-02-05T00:29:15.236Z,6.00
2023-02-05T00:31:42.537Z,5.22
2023-02-05T00:34:09.950Z,5.68
2023-02-05T00:36:37.161Z,4.72
2023-02-05T00:39:04.595Z,5.03
2023-02-05T00:41:32.019Z,5.00
2023-02-05T00:43:59.334Z,5.22
2023-02-05T00:46:27.860Z,4.53
2023-02-05T00:48:55.191Z,4.65
2023-02-05T00:51:22.464Z,5.10
2023-02-05T00:53:49.671Z,4.70
2023-02-05T00:56:16.990Z,4.78
2023-02-05T00:58:49.972Z,5.30
2023-02-05T01:01:18.139Z,5.00
2023-02-05T01:03:45.444Z,5.35
2023-02-05T01:06:12.791Z,4.93
2023-02-05T01:08:40.103Z,4.38
2023-02-05T01:11:11.225Z,5.00
2023-02-05T01:13:39.507Z,5.25
2023-02-05T01:16:07.600Z,5.07
2023-02-05T01:18:35.057Z,4.70
2023-02-05T01:21:02.869Z,4.85
2023-02-05T01:23:30.204Z,4.65
2023-02-05T01:25:57.446Z,4.55
2023-02-05T01:28:24.694Z,4.15
2023-02-05T01:30:52.361Z,4.28
2023-02-05T01:33:19.988Z,3.13
2023-02-05T01:35:47.408Z,3.80
2023-02-05T01:38:15.557Z,4.40
2023-02-05T01:40:43.544Z,4.03
2023-02-05T01:43:15.150Z,3.00
2023-02-05T01:46:24.621Z,3.83
2023-02-05T01:48:58.109Z,4.13
2023-02-05T01:51:29.698Z,3.65
2023-02-05T01:53:57.229Z,3.47
2023-02-05T01:56:35.818Z,3.95
2023-02-05T01:59:28.389Z,3.50
2023-02-05T02:01:56.444Z,3.53
2023-02-05T02:05:08.881Z,3.25
2023-02-05T02:07:36.807Z,3.08
2023-02-05T02:10:06.042Z,3.42
2023-02-05T02:12:38.327Z,2.80
2023-02-05T02:15:15.905Z,3.47
2023-02-05T02:17:52.634Z,2.55
2023-02-05T02:20:28.574Z,3.22
2023-02-05T02:22:55.609Z,3.33
2023-02-05T02:25:43.878Z,3.40
2023-02-05T02:28:39.154Z,3.38
2023-02-05T02:31:39.774Z,3.47
2023-02-05T02:34:41.909Z,3.67
2023-02-05T02:38:06.898Z,3.10
2023-02-05T02:40:55.153Z,3.33
2023-02-05T02:43:41.852Z,3.30
2023-02-05T02:46:41.233Z,2.97
2023-02-05T02:51:43.968Z,3.03
2023-02-05T02:54:17.438Z,3.25
2023-02-05T02:56:48.716Z,2.90
2023-02-05T02:59:21.174Z,2.50
2023-02-05T03:01:56.934Z,2.80
2023-02-05T03:04:52.422Z,2.80
2023-02-05T03:07:46.279Z,2.38
2023-02-05T03:10:43.343Z,3.03
2023-02-05T03:13:13.136Z,2.67
2023-02-05T03:15:45.198Z,3.08
2023-02-05T03:18:15.226Z,2.63
2023-02-05T03:21:10.029Z,3.30
2023-02-05T03:23:37.605Z,3.35
2023-02-05T03:26:05.176Z,2.95
2023-02-05T03:28:42.120Z,3.00
2023-02-05T03:31:23.830Z,2.85
2023-02-05T03:34:35.338Z,3.33
2023-02-05T03:37:43.667Z,2.53
2023-02-05T03:40:50.469Z,3.17
2023-02-05T03:43:56.944Z,2.33
2023-02-05T03:47:06.048Z,2.92
2023-02-05T03:50:06.194Z,3.20
2023-02-05T03:52:45.886Z,2.92
2023-02-05T03:55:27.611Z,2.22
2023-02-05T03:58:09.086Z,3.08
2023-02-05T04:03:05.301Z,2.47
2023-02-05T04:05:34.426Z,2.53
2023-02-05T04:08:03.851Z,2.03
2023-02-05T04:10:36.907Z,2.80
2023-02-05T04:13:04.288Z,2.97
2023-02-05T04:15:33.551Z,2.80
2023-02-05T04:18:03.133Z,2.53
2023-02-05T04:20:31.239Z,2.90
2023-02-05T04:22:59.985Z,2.70
2023-02-05T04:25:29.726Z,2.50
2023-02-05T04:28:01.058Z,2.65
2023-02-05T04:30:29.100Z,2.55
2023-02-05T04:32:56.613Z,2.40
2023-02-05T04:35:24.973Z,2.83
2023-02-05T04:37:52.319Z,2.75
2023-02-05T04:40:20.674Z,2.47
2023-02-05T04:42:48.109Z,2.75
2023-02-05T04:45:15.450Z,2.80
2023-02-05T04:47:42.755Z,2.40
2023-02-05T04:50:10.416Z,2.50
2023-02-05T04:52:37.615Z,2.22
2023-02-05T04:55:05.825Z,2.60
2023-02-05T04:57:33.080Z,2.83
2023-02-05T05:00:00.391Z,2.97
2023-02-05T05:02:27.800Z,2.85
2023-02-05T05:04:55.076Z,2.50
2023-02-05T05:07:22.307Z,2.80
2023-02-05T05:09:51.017Z,2.35
2023-02-05T05:12:19.506Z,2.35
2023-02-05T05:14:46.831Z,2.70
2023-02-05T05:17:14.758Z,2.45
2023-02-05T05:19:42.425Z,2.95
2023-02-05T05:22:09.696Z,2.78
2023-02-05T05:24:36.870Z,2.70
2023-02-05T05:27:04.289Z,2.88
2023-02-05T05:29:31.546Z,3.00
2023-02-05T05:31:58.911Z,2.15
2023-02-05T05:34:26.110Z,2.72
2023-02-05T05:36:53.599Z,2.50
2023-02-05T05:39:39.876Z,2.35
2023-02-05T05:42:25.757Z,2.50
2023-02-05T05:44:52.999Z,2.50
2023-02-05T05:47:21.070Z,3.17
2023-02-05T05:49:48.404Z,3.03
2023-02-05T05:52:16.767Z,2.72
2023-02-05T05:54:44.078Z,3.10
2023-02-05T05:57:11.275Z,3.05
2023-02-05T05:59:38.560Z,2.83
2023-02-05T06:02:06.043Z,2.85
2023-02-05T06:04:33.373Z,2.80
2023-02-05T06:07:02.203Z,2.65
2023-02-05T06:11:56.632Z,2.78
2023-02-05T06:14:23.921Z,3.00
2023-02-05T06:16:52.230Z,2.80
2023-02-05T06:19:19.528Z,2.55
2023-02-05T06:21:46.797Z,2.72
2023-02-05T06:24:14.043Z,2.83
2023-02-05T06:26:41.451Z,2.65
2023-02-05T06:29:08.690Z,2.40
2023-02-05T06:31:37.031Z,2.60
2023-02-05T06:34:04.411Z,2.90
2023-02-05T06:36:31.670Z,3.22
2023-02-05T06:38:58.937Z,2.72
2023-02-05T06:41:26.169Z,2.70
2023-02-05T06:43:53.517Z,2.83
2023-02-05T06:46:20.794Z,2.75
2023-02-05T06:48:48.179Z,2.95
2023-02-05T06:51:15.555Z,3.00
2023-02-05T06:53:43.644Z,3.20
2023-02-05T06:56:10.897Z,3.53
2023-02-05T06:58:38.209Z,3.85
2023-02-05T07:01:05.536Z,4.05
2023-02-05T07:03:32.750Z,5.97
2023-02-05T07:06:06.513Z,4.65
2023-02-05T07:08:35.109Z,3.75
2023-02-05T07:11:03.230Z,3.47
2023-02-05T07:13:30.864Z,3.75
2023-02-05T07:15:58.080Z,3.58
2023-02-05T07:18:25.551Z,3.47
2023-02-05T07:20:53.213Z,3.95
2023-02-05T07:23:20.531Z,3.85
2023-02-05T07:25:47.797Z,3.78
2023-02-05T07:28:15.078Z,3.47
2023-02-05T07:30:42.449Z,4.07
2023-02-05T07:33:10.118Z,3.97
2023-02-05T07:35:39.262Z,3.90
2023-02-05T07:38:06.508Z,4.13
2023-02-05T07:40:33.771Z,3.45
2023-02-05T07:43:01.002Z,4.25
2023-02-05T07:45:28.204Z,4.13
2023-02-05T07:47:55.686Z,4.28
2023-02-05T07:50:22.988Z,4.35
2023-02-05T07:52:50.181Z,4.70
2023-02-05T07:55:17.569Z,4.32
2023-02-05T07:57:45.009Z,3.67
2023-02-05T08:00:13.166Z,4.30
2023-02-05T08:02:40.569Z,4.47
2023-02-05T08:05:10.933Z,4.60
2023-02-05T08:07:38.838Z,4.20
2023-02-05T08:10:06.911Z,3.45
2023-02-05T08:12:34.237Z,3.92
2023-02-05T08:15:03.975Z,8.25
2023-02-05T08:17:31.318Z,3.80
2023-02-05T08:20:03.056Z,4.13
2023-02-05T08:22:30.447Z,4.53
2023-02-05T08:24:57.696Z,3.60
2023-02-05T08:27:24.969Z,3.88
2023-02-05T08:29:52.368Z,3.45
2023-02-05T08:32:19.636Z,3.53
2023-02-05T08:34:46.846Z,4.20
2023-02-05T08:37:14.131Z,4.00
2023-02-05T08:39:41.870Z,3.85
2023-02-05T08:42:09.076Z,4.65
2023-02-05T08:44:36.364Z,3.33
2023-02-05T08:47:05.014Z,3.20
2023-02-05T08:49:32.361Z,3.30
2023-02-05T08:51:59.721Z,3.28
2023-02-05T08:54:27.252Z,3.10
2023-02-05T08:56:55.140Z,2.85
2023-02-05T08:59:22.446Z,3.72
2023-02-05T09:01:50.225Z,2.65
2023-02-05T09:04:22.281Z,2.70
2023-02-05T09:06:51.572Z,2.97
2023-02-05T09:09:19.637Z,3.92
2023-02-05T09:11:47.718Z,2.90
2023-02-05T09:14:15.948Z,4.45
2023-02-05T09:16:43.170Z,2.50
2023-02-05T09:19:10.417Z,2.40
2023-02-05T09:21:37.645Z,2.42
2023-02-05T09:24:05.477Z,2.45
2023-02-05T09:26:32.820Z,2.40
2023-02-05T09:29:00.043Z,2.03
2023-02-05T09:31:27.813Z,2.30
2023-02-05T09:33:55.861Z,2.30
2023-02-05T09:36:24.163Z,2.58
2023-02-05T09:39:04.977Z,2.20
2023-02-05T09:42:06.844Z,2.70
2023-02-05T09:45:06.835Z,2.33
2023-02-05T09:47:54.509Z,2.60
2023-02-05T09:50:29.849Z,3.33
2023-02-05T09:53:05.986Z,2.22
2023-02-05T09:55:47.184Z,2.25
2023-02-05T09:58:27.365Z,1.95
2023-02-05T10:01:07.448Z,2.22
2023-02-05T10:03:54.944Z,2.38
2023-02-05T10:07:20.681Z,2.10
2023-02-05T10:10:16.028Z,2.30
2023-02-05T10:12:59.938Z,2.47
2023-02-05T10:16:01.411Z,2.60
2023-02-05T10:19:03.571Z,1.90
2023-02-05T10:22:15.067Z,1.83
2023-02-05T10:25:34.047Z,1.85
2023-02-05T10:28:41.134Z,1.70
2023-02-05T10:31:55.068Z,2.25
2023-02-05T10:35:02.782Z,1.98
2023-02-05T10:37:52.834Z,1.73
2023-02-05T10:40:39.296Z,2.38
2023-02-05T10:43:37.259Z,2.33
2023-02-05T10:46:12.328Z,1.70
2023-02-05T10:49:04.508Z,2.20
2023-02-05T10:51:40.826Z,2.42
2023-02-05T10:54:33.626Z,2.40
2023-02-05T10:57:01.487Z,1.88
2023-02-05T10:59:33.928Z,2.03
2023-02-05T11:02:09.171Z,1.90
2023-02-05T11:05:02.654Z,2.13
2023-02-05T11:07:47.014Z,1.63
2023-02-05T11:10:27.148Z,2.13
2023-02-05T11:13:22.082Z,2.00
2023-02-05T11:16:02.623Z,2.35
2023-02-05T11:18:40.619Z,2.22
2023-02-05T11:21:09.820Z,1.83
2023-02-05T11:23:40.241Z,2.63
2023-02-05T11:26:23.949Z,2.22
2023-02-05T11:28:51.358Z,2.45
2023-02-05T11:31:34.673Z,2.30
2023-02-05T11:34:08.030Z,2.15
2023-02-05T11:36:39.842Z,1.80
2023-02-05T11:39:07.893Z,2.20
2023-02-05T11:41:48.387Z,2.15
2023-02-05T11:44:32.211Z,1.75
2023-02-05T11:47:02.121Z,1.90
2023-02-05T11:49:41.271Z,1.77
2023-02-05T11:52:13.446Z,1.90
2023-02-05T11:54:47.526Z,2.30
2023-02-05T11:57:17.831Z,2.22
2023-02-05T12:00:00.537Z,2.40
2023-02-05T12:02:31.287Z,2.47
2023-02-05T12:05:13.045Z,2.50
2023-02-05T12:08:18.207Z,2.50
2023-02-05T12:11:24.581Z,2.33
2023-02-05T12:14:03.190Z,1.90
2023-02-05T12:17:02.832Z,1.90
2023-02-05T12:20:26.226Z,2.13
2023-02-05T12:23:36.328Z,1.60
2023-02-05T12:26:36.351Z,2.10
2023-02-05T12:29:43.361Z,2.13
2023-02-05T12:36:29.651Z,2.00
2023-02-05T12:39:37.101Z,1.73
2023-02-05T12:42:31.974Z,1.83
2023-02-05T12:45:36.034Z,2.20
2023-02-05T12:48:59.393Z,2.28
2023-02-05T12:52:12.869Z,1.60
2023-02-05T12:55:42.872Z,1.80
2023-02-05T12:58:13.766Z,1.98
2023-02-05T13:00:54.634Z,2.15
2023-02-05T13:06:33.531Z,1.55
2023-02-05T13:09:22.145Z,1.73
2023-02-05T13:12:04.987Z,1.85
2023-02-05T13:14:45.076Z,2.17
2023-02-05T13:17:28.626Z,2.05
2023-02-05T13:20:06.105Z,1.80
2023-02-05T13:23:04.948Z,1.70
2023-02-05T13:25:57.386Z,2.00
2023-02-05T13:28:44.830Z,1.70
2023-02-05T13:31:26.895Z,1.92
2023-02-05T13:34:02.350Z,1.80
2023-02-05T13:37:03.364Z,2.15
2023-02-05T13:40:36.203Z,2.30
2023-02-05T13:43:43.313Z,2.00
2023-02-05T13:47:02.031Z,1.75
2023-02-05T13:50:12.417Z,2.80
2023-02-05T13:53:24.137Z,1.92
2023-02-05T13:56:34.242Z,2.30
2023-02-05T13:59:12.286Z,2.70
2023-02-05T14:01:57.780Z,3.00
2023-02-05T14:04:34.524Z,2.05
2023-02-05T14:07:19.576Z,2.38
2023-02-05T14:10:00.939Z,1.80
2023-02-05T14:12:35.473Z,2.08
2023-02-05T14:15:18.317Z,1.63
2023-02-05T14:17:45.376Z,1.92
2023-02-05T14:20:37.656Z,2.78
2023-02-05T14:23:45.897Z,1.75
2023-02-05T14:26:13.158Z,2.35
2023-02-05T14:28:52.175Z,2.15
2023-02-05T14:31:49.339Z,1.73
2023-02-05T14:34:33.941Z,1.90
2023-02-05T14:37:01.466Z,1.98
2023-02-05T14:39:34.829Z,1.92
2023-02-05T14:42:06.995Z,1.83
2023-02-05T14:44:42.266Z,1.98
2023-02-05T14:47:31.658Z,1.80
2023-02-05T14:50:18.644Z,1.83
2023-02-05T14:52:56.888Z,1.70
2023-02-05T14:55:40.201Z,1.73
2023-02-05T14:58:25.044Z,2.28
2023-02-05T15:01:30.856Z,2.10
2023-02-05T15:04:02.187Z,1.83
2023-02-05T15:06:38.911Z,2.10
2023-02-05T15:09:17.681Z,2.47
2023-02-05T15:12:55.030Z,1.83
2023-02-05T15:15:37.398Z,1.90
2023-02-05T15:18:24.930Z,2.88
2023-02-05T15:20:56.273Z,2.13
2023-02-05T15:23:40.876Z,2.65
2023-02-05T15:26:52.215Z,1.95
2023-02-05T15:29:58.675Z,6.40
2023-02-05T15:33:01.475Z,4.25
2023-02-05T15:35:33.048Z,2.55
2023-02-05T15:38:35.553Z,2.22
2023-02-05T15:41:07.660Z,2.13
2023-02-05T15:43:34.920Z,2.10
2023-02-05T15:46:07.559Z,2.00
2023-02-05T15:48:38.492Z,4.05
2023-02-05T15:51:30.713Z,8.98
2023-02-05T15:54:02.390Z,3.00
2023-02-05T15:56:42.276Z,2.17
2023-02-05T15:59:21.898Z,2.33
2023-02-05T16:02:25.849Z,2.10
2023-02-05T16:05:18.973Z,2.10
2023-02-05T16:10:27.706Z,2.35
2023-02-05T16:13:17.865Z,2.80
2023-02-05T16:16:10.170Z,2.60
2023-02-05T16:18:53.501Z,2.45
2023-02-05T16:21:31.430Z,2.30
2023-02-05T16:24:05.080Z,2.20
2023-02-05T16:26:40.841Z,2.05
2023-02-05T16:29:25.634Z,2.30
2023-02-05T16:32:04.062Z,3.10
2023-02-05T16:34:33.815Z,2.00
2023-02-05T16:37:10.209Z,2.10
2023-02-05T16:39:50.865Z,2.20
2023-02-05T16:42:31.762Z,2.38
2023-02-05T16:45:23.426Z,2.90
2023-02-05T16:48:26.281Z,2.15
2023-02-05T16:50:53.778Z,2.33
2023-02-05T16:53:26.898Z,3.03
2023-02-05T16:56:13.828Z,2.38
2023-02-05T16:58:52.569Z,2.53
2023-02-05T17:01:43.257Z,3.25
2023-02-05T17:04:31.988Z,2.78
2023-02-05T17:07:02.326Z,2.88
2023-02-05T17:09:40.255Z,2.80
2023-02-05T17:12:22.392Z,3.20
2023-02-05T17:15:20.202Z,2.78
2023-02-05T17:18:06.273Z,2.40
2023-02-05T17:20:34.328Z,3.00
2023-02-05T17:23:05.201Z,2.83
2023-02-05T17:25:55.781Z,2.45
2023-02-05T17:28:27.468Z,3.05
2023-02-05T17:30:59.894Z,2.83
2023-02-05T17:33:29.831Z,2.80
2023-02-05T17:35:57.116Z,3.08
2023-02-05T17:38:24.421Z,2.75
2023-02-05T17:41:11.813Z,3.40
2023-02-05T17:43:39.269Z,3.08
2023-02-05T17:46:14.720Z,3.20
2023-02-05T17:48:42.345Z,3.05
2023-02-05T17:51:21.719Z,3.10
2023-02-05T17:53:50.202Z,2.97
2023-02-05T17:56:19.271Z,3.15
2023-02-05T17:58:48.436Z,2.60
2023-02-05T18:01:16.229Z,2.60
2023-02-05T18:03:44.013Z,2.88
2023-02-05T18:06:15.709Z,2.97
2023-02-05T18:08:43.413Z,3.13
2023-02-05T18:11:11.123Z,2.67
2023-02-05T18:13:38.623Z,2.58
2023-02-05T18:16:06.115Z,2.40
2023-02-05T18:18:38.986Z,2.55
2023-02-05T18:21:07.386Z,2.67
2023-02-05T18:23:34.723Z,2.90
2023-02-05T18:26:04.746Z,2.88
2023-02-05T18:28:33.131Z,3.03
2023-02-05T18:31:07.253Z,3.28
2023-02-05T18:33:35.361Z,3.33
2023-02-05T18:36:07.530Z,3.97
2023-02-05T18:38:36.481Z,3.58
2023-02-05T18:41:22.796Z,3.28
2023-02-05T18:43:56.055Z,3.47
2023-02-05T18:46:24.610Z,3.70
2023-02-05T18:48:52.336Z,2.90
2023-02-05T18:51:23.532Z,3.53
2023-02-05T18:53:50.782Z,3.22
2023-02-05T18:56:28.181Z,2.90
2023-02-05T18:59:06.943Z,2.92
2023-02-05T19:01:38.529Z,2.92
2023-02-05T19:04:11.337Z,3.17
2023-02-05T19:06:48.932Z,3.60
2023-02-05T19:09:16.662Z,3.22
2023-02-05T19:11:44.208Z,3.95
2023-02-05T19:14:15.520Z,2.70
2023-02-05T19:16:44.153Z,3.75
2023-02-05T19:19:21.793Z,3.50
2023-02-05T19:21:55.777Z,2.83
2023-02-05T19:24:23.504Z,3.60
2023-02-05T19:26:51.218Z,3.72
2023-02-05T19:29:20.406Z,3.47
2023-02-05T19:31:49.991Z,3.53
2023-02-05T19:34:17.312Z,3.90
2023-02-05T19:36:44.662Z,3.83
2023-02-05T19:39:14.770Z,4.35
2023-02-05T19:41:45.452Z,2.92
2023-02-05T19:44:12.950Z,4.05
2023-02-05T19:46:47.160Z,4.38
2023-02-05T19:49:22.095Z,2.67
2023-02-05T19:54:22.855Z,2.90
2023-02-05T19:56:50.953Z,2.88
2023-02-05T19:59:19.339Z,2.95
2023-02-05T20:01:47.184Z,2.72
2023-02-05T20:04:28.448Z,2.78
2023-02-05T20:07:00.259Z,2.88
2023-02-05T20:09:28.450Z,3.38
2023-02-05T20:11:55.748Z,2.60
2023-02-05T20:14:24.165Z,3.20
2023-02-05T20:16:52.084Z,2.92
2023-02-05T20:19:19.791Z,2.92
2023-02-05T20:21:47.877Z,2.95
2023-02-05T20:24:16.364Z,3.60
2023-02-05T20:26:47.731Z,3.30
2023-02-05T20:29:33.825Z,2.72
2023-02-05T20:32:01.992Z,3.35
2023-02-05T20:34:36.030Z,2.75
2023-02-05T20:37:07.115Z,2.65
2023-02-05T20:39:38.480Z,2.60
2023-02-05T20:42:05.999Z,2.65
2023-02-05T20:44:36.283Z,2.53
2023-02-05T20:47:07.424Z,2.33
2023-02-05T20:49:40.054Z,3.22
2023-02-05T20:52:09.635Z,2.67
2023-02-05T20:54:37.507Z,2.53
2023-02-05T20:57:04.832Z,2.63
2023-02-05T20:59:33.709Z,2.65
2023-02-05T21:02:02.497Z,2.78
2023-02-05T21:04:30.398Z,2.70
2023-02-05T21:06:58.440Z,2.50
2023-02-05T21:09:25.730Z,2.70
2023-02-05T21:11:55.404Z,3.00
2023-02-05T21:14:23.913Z,2.75
2023-02-05T21:16:51.261Z,2.70
2023-02-05T21:19:19.505Z,3.03
2023-02-05T21:21:46.947Z,2.78
2023-02-05T21:24:16.225Z,2.70
2023-02-05T21:26:49.718Z,2.80
2023-02-05T21:29:20.854Z,2.85
2023-02-05T21:31:55.474Z,2.78
2023-02-05T21:34:27.203Z,2.92
2023-02-05T21:36:55.696Z,3.17
2023-02-05T21:39:23.872Z,3.35
2023-02-05T21:41:51.387Z,2.72
2023-02-05T21:44:18.695Z,2.88
2023-02-05T21:46:45.955Z,3.15
2023-02-05T21:49:13.425Z,3.35
2023-02-05T21:51:42.521Z,2.85
2023-02-05T21:54:11.769Z,2.72
2023-02-05T21:56:43.085Z,3.20
2023-02-05T21:59:12.843Z,2.92
2023-02-05T22:01:42.117Z,2.83
2023-02-05T22:04:15.171Z,2.80
2023-02-05T22:06:43.783Z,2.50
2023-02-05T22:09:15.633Z,3.38
2023-02-05T22:11:44.642Z,3.05
2023-02-05T22:14:13.486Z,3.20
2023-02-05T22:16:41.045Z,2.63
2023-02-05T22:19:09.174Z,2.90
2023-02-05T22:21:40.771Z,2.72
2023-02-05T22:24:13.446Z,2.90
2023-02-05T22:26:41.845Z,2.83
2023-02-05T22:29:15.148Z,2.80
2023-02-05T22:31:44.534Z,3.30
2023-02-05T22:34:12.541Z,2.70
2023-02-05T22:36:39.840Z,2.80
2023-02-05T22:39:07.578Z,2.40
2023-02-05T22:41:39.330Z,3.15
2023-02-05T22:44:09.328Z,2.95
2023-02-05T22:46:43.833Z,2.83
2023-02-05T22:49:15.292Z,2.78
2023-02-05T22:51:43.278Z,2.70
2023-02-05T22:54:13.523Z,3.15
2023-02-05T22:56:40.783Z,2.83
2023-02-05T22:59:08.770Z,2.65
2023-02-05T23:01:38.935Z,3.25
2023-02-05T23:04:10.477Z,2.90
2023-02-05T23:06:41.986Z,2.67
2023-02-05T23:09:17.109Z,2.90
2023-02-05T23:11:45.574Z,2.83
2023-02-05T23:14:17.033Z,2.67
2023-02-05T23:16:47.069Z,2.92
2023-02-05T23:19:19.691Z,2.92
2023-02-05T23:21:48.119Z,3.10
2023-02-05T23:24:16.454Z,2.92
2023-02-05T23:26:47.954Z,2.90
2023-02-05T23:29:17.714Z,3.30
2023-02-05T23:31:45.773Z,3.22
2023-02-05T23:34:13.721Z,3.00
2023-02-05T23:36:41.178Z,2.50
2023-02-05T23:39:08.736Z,2.88
2023-02-05T23:41:36.406Z,2.70
2023-02-05T23:44:15.533Z,2.70
2023-02-05T23:46:45.527Z,3.00
2023-02-05T23:49:13.643Z,2.25
2023-02-05T23:51:41.593Z,2.78
2023-02-05T23:54:11.264Z,2.53
2023-02-05T23:56:39.184Z,2.85
2023-02-05T23:59:07.688Z,2.53
